NCAR-RAP Real-Time Weather Data

Output produced by METARs form (06 July 2020  10:58 UTC)
found at http://weather.rap.ucar.edu/surface/
 
Conditions at: KIND observed 06 July 2020  10:54 UTC
Temperature: 23.9°C (75°F)
Dewpoint: 21.7°C (71°F) [RH = 88%]
Pressure (altimeter): 29.99 inches Hg (1015.7 mb)
[Sea-level pressure: 1014.8 mb]
Winds: from the NE (40 degrees) at 3 MPH (3 knots; 1.6 m/s)
Visibility: 7 miles (11 km)
Ceiling: at least 12,000 feet AGL
Clouds: few clouds at 5000 feet AGL
scattered clouds at 10000 feet AGL
Present Weather:
SOME DATA ABOVE MAY BE INACCURATE!!!
"$" is an indication the sensor requires maintenance
KIND 061054Z 04003KT 7SM FEW050 SCT100 24/22 A2999 RMK AO2 SLP148 CB DSNT S T02390217 $